Time;durP1;ratioP1;P1;durP2;ratioP2;P2;SDS_P1;SDS_P2;PMS_P1;PMS_P2;Temp;Humidity;BMP_temperature;BMP_pressure;BME280_temperature;BME280_humidity;BME280_pressure;Samples;Min_cycle;Max_cycle;Signal;HPM_P1;HPM_P2
2023/10/27 00:01:14;;;;;;;10.40;3.85;;;;;;;20.15;72.21;99009.53;4874333;29;20119;-80
2023/10/27 00:03:41;;;;;;;8.65;3.00;;;;;;;19.94;72.23;98986.75;4876066;29;20368;-78
2023/10/27 00:06:11;;;;;;;11.48;3.60;;;;;;;20.03;72.45;98994.22;4890310;29;20063;-79
2023/10/27 00:08:38;;;;;;;5.68;3.30;;;;;;;19.97;72.36;98984.38;4901534;29;20371;-80
2023/10/27 00:11:08;;;;;;;8.07;3.35;;;;;;;19.73;73.59;98978.19;4903603;29;20134;-78
2023/10/27 00:13:36;;;;;;;11.63;3.65;;;;;;;20.05;72.96;98996.69;4896931;29;20498;-79
2023/10/27 00:16:08;;;;;;;9.98;2.90;;;;;;;20.05;72.43;98978.63;4892755;29;20059;-78
2023/10/27 00:18:39;;;;;;;8.88;2.70;;;;;;;20.08;72.50;98982.72;4909467;28;20480;-78
2023/10/27 00:21:07;;;;;;;5.82;3.13;;;;;;;20.04;72.37;98976.19;4883633;29;20071;-80
2023/10/27 00:23:35;;;;;;;7.90;2.83;;;;;;;19.96;72.57;98952.31;4882842;29;20395;-78
2023/10/27 00:26:02;;;;;;;6.45;3.53;;;;;;;19.91;72.11;98915.31;4890419;29;20086;-79
2023/10/27 00:28:29;;;;;;;8.20;3.50;;;;;;;20.21;71.99;98968.97;4879164;29;20092;-79
2023/10/27 00:31:02;;;;;;;8.37;3.00;;;;;;;19.98;72.24;98929.47;4861914;29;20052;-81
2023/10/27 00:33:29;;;;;;;6.70;2.88;;;;;;;20.06;72.36;98947.13;4885561;29;20064;-80
2023/10/27 00:35:56;;;;;;;8.57;2.53;;;;;;;19.98;73.28;98950.22;4862894;29;20525;-80
2023/10/27 00:38:26;;;;;;;5.85;2.67;;;;;;;20.01;72.92;98933.56;4853540;29;20109;-79
2023/10/27 00:40:54;;;;;;;11.55;3.95;;;;;;;20.03;72.38;98932.25;4861243;29;20066;-79
2023/10/27 00:43:24;;;;;;;9.60;2.63;;;;;;;19.88;72.55;98912.28;4870758;29;20363;-80
2023/10/27 00:45:53;;;;;;;6.70;3.05;;;;;;;20.18;71.89;98915.59;4878531;29;20051;-79
2023/10/27 00:48:21;;;;;;;8.60;2.58;;;;;;;20.05;71.43;98903.22;4896139;28;20047;-78
2023/10/27 00:50:49;;;;;;;6.65;2.88;;;;;;;20.19;71.54;98914.50;4894739;29;20087;-78
2023/10/27 00:53:19;;;;;;;4.55;3.10;;;;;;;20.06;71.72;98885.19;4880768;29;20062;-80
2023/10/27 00:55:47;;;;;;;7.65;2.63;;;;;;;20.27;71.04;98891.78;4879589;29;20588;-80
2023/10/27 00:58:15;;;;;;;9.90;2.63;;;;;;;20.34;70.35;98894.31;4883489;29;20058;-78
2023/10/27 01:00:43;;;;;;;7.40;3.22;;;;;;;20.40;69.83;98887.97;4890075;28;20051;-81
2023/10/27 01:03:10;;;;;;;5.43;2.22;;;;;;;20.41;69.42;98871.56;4878664;29;20047;-80
2023/10/27 01:05:37;;;;;;;7.32;2.85;;;;;;;20.40;69.47;98871.78;4910396;29;20074;-80
2023/10/27 01:08:07;;;;;;;10.35;2.95;;;;;;;20.36;69.37;98859.84;4898617;29;20051;-80
2023/10/27 01:10:36;;;;;;;12.45;3.05;;;;;;;20.42;68.77;98850.81;4887024;29;20134;-79
2023/10/27 01:13:02;;;;;;;6.53;2.50;;;;;;;20.41;68.87;98835.69;4895093;29;20138;-81
2023/10/27 01:15:30;;;;;;;10.55;2.53;;;;;;;20.40;69.05;98842.97;4891111;29;20449;-79
2023/10/27 01:18:05;;;;;;;7.78;2.33;;;;;;;20.53;68.70;98843.69;4905904;29;20050;-79
2023/10/27 01:20:35;;;;;;;5.95;2.80;;;;;;;20.36;68.78;98816.75;4872965;29;20052;-81
2023/10/27 01:23:03;;;;;;;7.05;2.25;;;;;;;20.49;68.88;98832.59;4883097;29;20043;-80
2023/10/27 01:25:30;;;;;;;8.02;2.40;;;;;;;20.38;68.62;98798.44;4886806;29;20059;-80
2023/10/27 01:28:03;;;;;;;4.63;2.38;;;;;;;20.23;69.04;98780.97;4867594;29;20318;-80
2023/10/27 01:30:32;;;;;;;8.82;1.92;;;;;;;20.39;68.81;98821.63;4866345;29;20054;-79
2023/10/27 01:33:04;;;;;;;8.70;1.90;;;;;;;20.31;68.81;98804.00;4870075;29;20048;-80
2023/10/27 01:35:36;;;;;;;4.53;2.65;;;;;;;20.35;69.13;98809.72;4867695;29;20135;-80
2023/10/27 01:38:04;;;;;;;6.45;2.40;;;;;;;20.22;69.37;98800.06;4854202;29;20048;-79
2023/10/27 01:40:31;;;;;;;7.95;2.40;;;;;;;20.30;69.33;98801.56;4867785;29;20419;-79
2023/10/27 01:42:58;;;;;;;3.80;1.85;;;;;;;20.36;69.05;98785.22;4873013;29;20041;-79
2023/10/27 01:45:25;;;;;;;6.38;1.88;;;;;;;20.26;69.08;98775.06;4872977;29;20318;-79
2023/10/27 01:47:56;;;;;;;3.83;2.00;;;;;;;20.35;68.90;98780.09;4906673;29;20142;-80
2023/10/27 01:50:26;;;;;;;8.30;2.92;;;;;;;19.97;69.30;98716.94;4902217;29;20060;-79
2023/10/27 01:52:56;;;;;;;4.90;2.08;;;;;;;20.22;69.08;98757.78;4889386;29;20870;-79
2023/10/27 01:55:25;;;;;;;4.88;2.42;;;;;;;20.02;69.46;98725.91;4892964;28;20098;-80
2023/10/27 01:57:52;;;;;;;8.55;2.08;;;;;;;20.03;69.57;98716.78;4887104;29;20565;-79
2023/10/27 02:00:19;;;;;;;5.88;2.20;;;;;;;20.06;69.94;98731.66;4874217;29;20463;-78
2023/10/27 02:02:46;;;;;;;7.70;2.35;;;;;;;20.07;70.13;98725.19;4900658;29;20064;-79
2023/10/27 02:05:13;;;;;;;6.32;2.10;;;;;;;19.87;70.19;98697.94;4902331;29;20051;-81
2023/10/27 02:07:44;;;;;;;5.25;2.45;;;;;;;20.04;70.26;98715.72;4913533;29;20576;-79
2023/10/27 02:10:12;;;;;;;9.10;1.75;;;;;;;19.75;70.07;98671.06;4912121;29;20067;-79
2023/10/27 02:12:43;;;;;;;5.88;1.95;;;;;;;20.17;69.50;98728.06;4905068;29;20060;-79
2023/10/27 02:15:10;;;;;;;4.32;2.08;;;;;;;20.15;68.73;98680.91;4905349;29;20315;-79
2023/10/27 02:17:39;;;;;;;6.90;2.60;;;;;;;20.30;68.58;98697.28;4911033;29;20383;-78
2023/10/27 02:20:07;;;;;;;9.77;1.80;;;;;;;20.20;68.90;98687.16;4910187;29;20082;-79
2023/10/27 02:22:34;;;;;;;5.53;1.90;;;;;;;20.16;69.13;98682.50;4897493;29;20469;-79
2023/10/27 02:25:02;;;;;;;4.97;2.20;;;;;;;20.06;69.77;98670.50;4885324;29;20084;-80
2023/10/27 02:27:31;;;;;;;7.70;2.85;;;;;;;19.98;69.56;98653.97;4885528;29;20508;-79
2023/10/27 02:29:58;;;;;;;6.22;1.90;;;;;;;20.09;68.52;98628.00;4919260;29;20109;-79
2023/10/27 02:32:26;;;;;;;3.67;2.17;;;;;;;20.23;68.65;98665.13;4900417;29;20498;-79
2023/10/27 02:34:53;;;;;;;6.70;2.08;;;;;;;20.39;67.59;98670.72;4907907;29;20653;-79
2023/10/27 02:37:20;;;;;;;3.50;1.98;;;;;;;20.31;68.12;98636.94;4895765;29;20079;-78
2023/10/27 02:39:50;;;;;;;5.95;2.33;;;;;;;20.04;68.08;98609.88;4885305;29;20051;-79
2023/10/27 02:42:21;;;;;;;7.95;1.90;;;;;;;20.24;67.72;98655.16;4873704;29;20138;-80
2023/10/27 02:44:50;;;;;;;4.82;2.05;;;;;;;20.32;67.19;98640.47;4877573;29;20048;-80
2023/10/27 02:47:17;;;;;;;4.47;2.13;;;;;;;20.53;67.08;98655.03;4899421;29;20126;-80
2023/10/27 02:49:44;;;;;;;11.98;2.08;;;;;;;20.49;66.05;98654.72;4898391;29;20080;-77
2023/10/27 02:52:12;;;;;;;5.95;2.25;;;;;;;20.62;66.75;98657.06;4887607;29;20482;-80
2023/10/27 02:54:39;;;;;;;7.35;1.80;;;;;;;20.20;66.93;98630.59;4895401;29;20126;-79
2023/10/27 02:57:06;;;;;;;4.38;2.00;;;;;;;20.32;67.95;98680.88;4898370;29;20091;-79
2023/10/27 02:59:34;;;;;;;6.93;2.03;;;;;;;20.40;67.06;98702.81;4871755;29;20067;-79
2023/10/27 03:02:05;;;;;;;4.00;1.85;;;;;;;20.49;67.58;98674.41;4905496;29;20055;-80
2023/10/27 03:04:32;;;;;;;5.90;2.25;;;;;;;20.52;67.80;98691.94;4908482;28;20206;-78
2023/10/27 03:06:59;;;;;;;6.22;2.00;;;;;;;20.26;68.96;98663.81;4899887;29;20222;-78
2023/10/27 03:09:26;;;;;;;6.00;1.98;;;;;;;20.41;70.70;98665.91;4895168;29;20062;-80
2023/10/27 03:11:53;;;;;;;9.73;2.28;;;;;;;20.45;71.42;98684.03;4889395;29;20111;-79
2023/10/27 03:14:21;;;;;;;7.28;1.98;;;;;;;20.28;72.51;98677.84;4898541;29;20155;-78
2023/10/27 03:16:47;;;;;;;11.23;1.95;;;;;;;20.16;72.34;98667.16;4893013;29;20052;-79
2023/10/27 03:19:14;;;;;;;8.02;2.03;;;;;;;19.91;73.20;98642.53;4895329;29;20054;-78
2023/10/27 03:21:41;;;;;;;3.03;1.33;;;;;;;19.94;72.98;98658.19;4894014;29;20134;-78
2023/10/27 03:24:08;;;;;;;4.85;2.22;;;;;;;20.07;72.35;98679.41;4898723;29;20309;-79
2023/10/27 03:26:37;;;;;;;2.33;1.65;;;;;;;20.01;73.19;98669.63;4890066;29;20047;-78
2023/10/27 03:29:06;;;;;;;6.57;2.10;;;;;;;19.85;73.41;98633.53;4887190;29;20139;-78
2023/10/27 03:31:33;;;;;;;12.00;1.90;;;;;;;19.93;72.55;98626.94;4871167;29;20119;-77
2023/10/27 03:34:00;;;;;;;4.72;1.77;;;;;;;19.55;72.68;98574.63;4883576;29;20420;-77
2023/10/27 03:36:27;;;;;;;9.05;1.88;;;;;;;19.84;72.72;98626.53;4888205;29;20054;-81
2023/10/27 03:38:53;;;;;;;9.80;2.15;;;;;;;19.88;73.54;98638.47;4893359;29;20196;-80
2023/10/27 03:41:23;;;;;;;2.80;1.35;;;;;;;19.79;73.94;98643.41;4902797;29;20079;-81
2023/10/27 03:43:50;;;;;;;5.88;1.95;;;;;;;19.85;74.53;98645.16;4898352;29;20394;-80
2023/10/27 03:46:17;;;;;;;8.00;1.80;;;;;;;19.72;74.19;98613.16;4894693;29;20051;-76
2023/10/27 03:48:44;;;;;;;4.80;1.90;;;;;;;19.76;74.59;98641.22;4891645;28;20066;-79
2023/10/27 03:51:11;;;;;;;6.45;1.92;;;;;;;19.75;73.97;98650.34;4894864;29;20052;-79
2023/10/27 03:53:38;;;;;;;7.95;2.40;;;;;;;19.58;74.26;98626.06;4888717;29;20427;-80
2023/10/27 03:56:05;;;;;;;8.82;1.77;;;;;;;19.70;75.01;98652.94;4895845;29;20143;-80
2023/10/27 03:58:32;;;;;;;5.88;2.40;;;;;;;19.64;74.75;98665.50;4892167;29;20091;-77
2023/10/27 04:01:12;;;;;;;3.90;1.35;;;;;;;19.69;74.45;98656.72;4900353;29;20055;-80
2023/10/27 04:03:39;;;;;;;6.20;2.20;;;;;;;19.57;75.37;98632.53;4898706;29;20537;-77
2023/10/27 04:06:06;;;;;;;3.95;1.50;;;;;;;19.75;74.60;98642.25;4881286;29;20051;-79
2023/10/27 04:08:33;;;;;;;3.90;1.70;;;;;;;19.93;73.68;98661.94;4883605;29;20054;-78
2023/10/27 04:11:00;;;;;;;7.65;1.80;;;;;;;19.86;73.28;98662.13;4894725;29;20075;-78
2023/10/27 04:13:27;;;;;;;10.63;1.80;;;;;;;19.83;73.43;98639.19;4889714;29;20131;-78
2023/10/27 04:15:54;;;;;;;7.03;2.03;;;;;;;19.94;73.26;98664.38;4879047;29;20493;-77
2023/10/27 04:18:22;;;;;;;5.38;1.70;;;;;;;19.77;73.48;98644.72;4859539;29;20079;-78
2023/10/27 04:20:50;;;;;;;5.00;1.95;;;;;;;19.93;73.25;98684.31;4899786;29;20056;-79
2023/10/27 04:23:17;;;;;;;9.80;2.38;;;;;;;20.14;72.84;98674.66;4890742;29;20100;-78
2023/10/27 04:25:44;;;;;;;8.60;1.70;;;;;;;20.22;72.14;98682.34;4892712;29;20307;-78
2023/10/27 04:28:11;;;;;;;5.95;1.92;;;;;;;20.17;72.08;98682.28;4880075;28;20063;-79
2023/10/27 04:30:38;;;;;;;6.88;1.60;;;;;;;20.30;70.88;98666.84;4891830;29;20064;-78
2023/10/27 04:33:05;;;;;;;4.13;1.95;;;;;;;20.26;71.19;98667.31;4893636;29;20055;-79
2023/10/27 04:35:33;;;;;;;4.28;2.05;;;;;;;20.43;70.44;98691.53;4889057;29;20048;-79
2023/10/27 04:38:04;;;;;;;5.95;1.80;;;;;;;20.38;71.24;98686.06;4875045;29;20052;-79
2023/10/27 04:40:34;;;;;;;5.07;1.92;;;;;;;19.82;71.41;98613.31;4875374;29;20537;-78
2023/10/27 04:43:01;;;;;;;6.18;2.15;;;;;;;20.30;72.18;98683.81;4854122;29;20079;-79
2023/10/27 04:45:28;;;;;;;5.05;1.70;;;;;;;20.32;71.99;98664.72;4874950;29;20056;-79
2023/10/27 04:47:55;;;;;;;7.35;1.92;;;;;;;20.32;71.83;98670.91;4911517;29;20432;-79
2023/10/27 04:50:24;;;;;;;7.30;1.55;;;;;;;20.32;71.87;98676.31;4895979;29;20472;-81
2023/10/27 04:52:51;;;;;;;8.57;2.00;;;;;;;20.09;72.23;98663.00;4879139;29;20794;-78
2023/10/27 04:55:19;;;;;;;4.22;1.63;;;;;;;20.16;72.43;98672.53;4894371;29;20055;-80
2023/10/27 04:57:46;;;;;;;4.32;1.73;;;;;;;20.13;73.03;98699.19;4898217;28;20136;-80
2023/10/27 05:00:14;;;;;;;3.78;1.85;;;;;;;19.96;72.40;98686.50;4873063;29;20145;-78
2023/10/27 05:02:41;;;;;;;9.38;2.05;;;;;;;20.02;73.12;98709.75;4884227;29;20067;-77
2023/10/27 05:05:11;;;;;;;3.30;1.58;;;;;;;20.09;72.76;98733.03;4901900;29;20150;-79
2023/10/27 05:07:38;;;;;;;5.78;2.35;;;;;;;20.07;72.91;98727.88;4902859;29;20051;-79
2023/10/27 05:10:08;;;;;;;6.43;3.30;;;;;;;20.18;71.86;98774.69;4879608;29;20151;-77
2023/10/27 05:12:36;;;;;;;10.48;5.78;;;;;;;20.01;72.47;98777.34;4896371;29;20058;-80
2023/10/27 05:15:03;;;;;;;17.23;10.40;;;;;;;20.07;71.84;98784.44;4896191;29;20639;-79
2023/10/27 05:17:35;;;;;;;16.50;10.55;;;;;;;19.85;73.23;98793.25;4900052;29;20596;-79
2023/10/27 05:20:05;;;;;;;25.65;15.18;;;;;;;19.66;74.21;98797.16;4909552;28;20447;-78
2023/10/27 05:22:34;;;;;;;36.38;22.88;;;;;;;19.43;75.46;98812.28;4895087;28;20048;-78
2023/10/27 05:25:03;;;;;;;49.05;28.27;;;;;;;19.24;76.37;98791.97;4869179;29;20514;-77
2023/10/27 05:27:31;;;;;;;51.63;30.90;;;;;;;19.11;76.82;98805.69;4882291;29;20498;-78
2023/10/27 05:29:58;;;;;;;64.20;37.55;;;;;;;18.94;78.25;98805.59;4895862;29;20450;-80
2023/10/27 05:32:25;;;;;;;66.13;35.30;;;;;;;18.90;78.30;98807.91;4905786;29;20055;-79
2023/10/27 05:34:53;;;;;;;73.53;41.45;;;;;;;18.78;79.04;98831.28;4914211;29;20047;-79
2023/10/27 05:37:21;;;;;;;58.38;32.58;;;;;;;18.65;79.61;98834.19;4888824;29;20047;-79
2023/10/27 05:39:48;;;;;;;76.63;41.15;;;;;;;18.50;80.10;98811.25;4913322;29;20051;-79
2023/10/27 05:42:15;;;;;;;76.82;41.05;;;;;;;18.50;80.88;98826.56;4914264;29;20047;-78
2023/10/27 05:44:42;;;;;;;84.63;43.67;;;;;;;18.23;81.36;98793.91;4915659;28;20501;-79
2023/10/27 05:47:15;;;;;;;70.97;41.70;;;;;;;18.36;81.58;98831.31;4909536;29;20476;-80
2023/10/27 05:49:43;;;;;;;79.32;44.33;;;;;;;18.12;82.46;98817.00;4901956;28;20132;-78
2023/10/27 05:52:11;;;;;;;82.68;43.85;;;;;;;18.14;82.99;98839.09;4881180;29;20087;-80
2023/10/27 05:54:45;;;;;;;74.60;40.08;;;;;;;17.99;82.81;98804.59;4878214;29;20466;-79
2023/10/27 05:57:14;;;;;;;78.40;42.10;;;;;;;18.19;82.71;98827.66;4892147;29;20059;-80
2023/10/27 05:59:47;;;;;;;76.38;39.42;;;;;;;18.05;83.11;98814.41;4896154;29;20275;-79
2023/10/27 06:02:14;;;;;;;76.25;40.50;;;;;;;17.98;83.66;98821.75;4897226;29;20112;-78
2023/10/27 06:04:42;;;;;;;51.03;27.48;;;;;;;17.97;84.04;98846.97;4894874;29;20059;-80
2023/10/27 06:07:09;;;;;;;78.30;40.47;;;;;;;17.81;84.82;98839.53;4884914;29;20047;-78
2023/10/27 06:09:36;;;;;;;76.70;41.00;;;;;;;17.88;85.32;98854.50;4885212;29;20462;-80
2023/10/27 06:12:03;;;;;;;72.45;36.55;;;;;;;17.91;84.77;98872.00;4882138;29;20490;-80
2023/10/27 06:14:30;;;;;;;55.45;29.90;;;;;;;17.84;85.00;98868.59;4893573;29;20131;-78
2023/10/27 06:16:57;;;;;;;83.35;42.78;;;;;;;17.90;85.24;98875.75;4902564;28;20277;-79
2023/10/27 06:19:25;;;;;;;70.47;38.08;;;;;;;17.96;84.96;98880.22;4874314;29;20773;-78
2023/10/27 06:22:00;;;;;;;61.42;34.83;;;;;;;18.02;84.62;98890.06;4875231;29;20482;-79
2023/10/27 06:24:27;;;;;;;67.05;34.55;;;;;;;17.93;83.78;98870.75;4903117;29;20482;-78
2023/10/27 06:26:54;;;;;;;77.18;38.25;;;;;;;18.01;83.96;98866.09;4884478;29;20565;-80
2023/10/27 06:29:21;;;;;;;75.65;39.53;;;;;;;17.72;83.73;98850.56;4873842;29;20199;-78
2023/10/27 06:31:48;;;;;;;63.28;32.38;;;;;;;17.86;84.27;98887.97;4899125;29;20071;-79
2023/10/27 06:34:15;;;;;;;64.75;34.17;;;;;;;17.68;83.82;98856.59;4867572;29;20146;-78
2023/10/27 06:36:42;;;;;;;75.78;41.22;;;;;;;18.04;83.77;98904.06;4891278;29;20086;-79
2023/10/27 06:39:12;;;;;;;71.60;37.50;;;;;;;18.01;84.12;98923.34;4877377;29;20040;-79
2023/10/27 06:41:40;;;;;;;74.10;37.65;;;;;;;17.98;84.37;98933.69;4883896;28;20063;-79
2023/10/27 06:44:14;;;;;;;61.72;33.92;;;;;;;18.04;83.82;98932.78;4872636;29;20051;-79
2023/10/27 06:46:45;;;;;;;59.00;30.20;;;;;;;17.97;84.08;98940.94;4873978;28;20611;-78
2023/10/27 06:49:14;;;;;;;65.03;33.97;;;;;;;18.07;82.49;98946.56;4882791;29;20411;-78
2023/10/27 06:51:41;;;;;;;58.13;32.17;;;;;;;18.08;83.02;98964.34;4868128;29;20052;-79
2023/10/27 06:54:10;;;;;;;50.60;29.42;;;;;;;18.04;83.13;98965.03;4894648;29;20103;-79
2023/10/27 06:56:36;;;;;;;53.28;27.40;;;;;;;18.04;83.13;98967.69;4881629;29;20051;-79
2023/10/27 06:59:03;;;;;;;44.95;27.95;;;;;;;18.00;83.38;98988.78;4898742;29;20051;-78
2023/10/27 07:01:35;;;;;;;57.97;29.33;;;;;;;17.65;83.38;98932.19;4881204;29;20487;-79
2023/10/27 07:04:02;;;;;;;43.95;26.70;;;;;;;17.99;83.05;98995.22;4898066;29;20048;-78
2023/10/27 07:06:33;;;;;;;47.03;25.73;;;;;;;17.83;83.51;98977.84;4882273;29;20451;-80
2023/10/27 07:09:00;;;;;;;49.33;27.15;;;;;;;17.93;83.22;98983.50;4884199;29;20103;-80
2023/10/27 07:11:34;;;;;;;45.35;26.48;;;;;;;17.90;83.07;98993.88;4899263;29;20280;-80
2023/10/27 07:14:04;;;;;;;46.42;25.77;;;;;;;17.73;83.03;98988.25;4893699;29;20056;-80
2023/10/27 07:16:31;;;;;;;44.25;24.13;;;;;;;17.69;83.47;98998.59;4892298;29;20118;-79
2023/10/27 07:18:59;;;;;;;43.40;24.17;;;;;;;17.67;83.25;98979.22;4891771;29;20383;-79
2023/10/27 07:21:29;;;;;;;40.42;22.73;;;;;;;17.84;83.23;99000.13;4889879;29;20483;-77
2023/10/27 07:23:56;;;;;;;40.83;22.02;;;;;;;17.93;82.03;99009.53;4870342;29;20372;-77
2023/10/27 07:26:23;;;;;;;32.70;18.67;;;;;;;17.85;81.76;98991.84;4885873;29;20087;-77
2023/10/27 07:28:50;;;;;;;37.00;22.02;;;;;;;17.53;81.54;98934.78;4868476;29;20052;-78
2023/10/27 07:31:17;;;;;;;30.80;17.35;;;;;;;17.88;81.46;98980.66;4904636;29;20481;-77
2023/10/27 07:33:45;;;;;;;32.80;19.27;;;;;;;18.00;81.49;98994.16;4887774;29;20052;-79
2023/10/27 07:36:12;;;;;;;33.42;19.50;;;;;;;18.04;80.18;98999.94;4894253;29;20064;-78
2023/10/27 07:38:39;;;;;;;35.65;20.40;;;;;;;18.08;79.78;99012.69;4880877;29;20056;-78
2023/10/27 07:41:06;;;;;;;30.67;17.00;;;;;;;18.07;80.41;99016.41;4898328;29;20573;-79
2023/10/27 07:43:33;;;;;;;29.15;16.92;;;;;;;18.00;80.15;99009.47;4871819;29;20417;-80
2023/10/27 07:46:01;;;;;;;32.60;19.50;;;;;;;18.17;79.97;99033.84;4887516;29;20055;-79
2023/10/27 07:48:28;;;;;;;32.90;19.65;;;;;;;18.19;79.78;99039.81;4893724;29;20052;-80
2023/10/27 07:50:57;;;;;;;27.17;16.88;;;;;;;18.17;80.24;99036.53;4859744;29;20432;-78
2023/10/27 07:53:26;;;;;;;31.63;17.83;;;;;;;18.16;80.45;99035.72;4864088;29;20537;-78
2023/10/27 07:55:58;;;;;;;32.05;19.27;;;;;;;18.19;79.89;99029.09;4891249;29;20056;-80
2023/10/27 07:58:26;;;;;;;29.30;19.88;;;;;;;18.06;79.84;99009.41;4889711;29;20501;-79
2023/10/27 08:00:53;;;;;;;26.13;16.77;;;;;;;18.13;79.45;99028.94;4873505;29;20602;-79
2023/10/27 08:03:25;;;;;;;37.30;20.58;;;;;;;18.37;79.78;99055.91;4895262;29;20395;-82
2023/10/27 08:05:59;;;;;;;27.60;16.83;;;;;;;18.34;79.85;99053.69;4873923;29;20070;-81
2023/10/27 08:08:26;;;;;;;32.85;19.95;;;;;;;18.38;79.42;99044.16;4893141;29;20409;-79
2023/10/27 08:10:56;;;;;;;21.27;13.23;;;;;;;18.40;79.26;99036.69;4892850;29;20466;-81
2023/10/27 08:13:25;;;;;;;;;;;;;;;18.45;78.88;99049.44;4883706;29;20345;-79
2023/10/27 08:15:59;;;;;;;20.20;13.20;;;;;;;18.29;78.78;99014.06;4900702;29;19922;-80
2023/10/27 08:18:29;;;;;;;33.00;19.63;;;;;;;18.58;77.96;99055.47;4887209;29;20521;-79
2023/10/27 08:20:59;;;;;;;34.92;19.65;;;;;;;18.51;77.97;99060.09;4887729;29;20058;-79
2023/10/27 08:23:31;;;;;;;30.33;19.30;;;;;;;18.52;78.78;99058.22;4893168;29;20533;-80
2023/10/27 08:26:01;;;;;;;20.98;14.27;;;;;;;18.39;78.50;99042.28;4879927;29;20554;-77
2023/10/27 08:28:31;;;;;;;31.08;18.67;;;;;;;18.48;78.54;99049.00;4879721;29;20871;-78
2023/10/27 08:31:05;;;;;;;33.13;20.40;;;;;;;18.63;77.73;99078.97;4897788;29;20062;-79
2023/10/27 08:33:35;;;;;;;27.65;18.20;;;;;;;18.71;77.24;99085.91;4901090;29;20055;-81
2023/10/27 08:36:05;;;;;;;29.45;19.50;;;;;;;18.73;77.00;99075.75;4883865;29;20135;-81
2023/10/27 08:38:32;;;;;;;18.00;11.80;;;;;;;18.55;77.81;99055.09;4870841;29;20409;-80
2023/10/27 08:41:05;;;;;;;29.27;15.93;;;;;;;18.64;78.26;99058.28;4872763;29;20308;-79
2023/10/27 08:43:32;;;;;;;30.67;17.67;;;;;;;19.00;76.53;99098.59;4865756;29;20268;-80
2023/10/27 08:46:03;;;;;;;23.23;13.23;;;;;;;18.72;76.75;99039.16;4883731;29;20422;-79
2023/10/27 08:48:35;;;;;;;26.65;16.05;;;;;;;19.15;76.62;99100.00;4914195;28;20051;-79
2023/10/27 08:51:07;;;;;;;29.02;16.08;;;;;;;19.20;75.58;99089.41;4888732;29;20588;-78
2023/10/27 08:53:42;;;;;;;;;;;;;;;19.32;74.57;99109.09;4910625;29;20122;-78
2023/10/27 08:56:12;;;;;;;24.38;15.75;;;;;;;19.20;74.63;99089.41;4885539;29;20757;-81
2023/10/27 08:58:40;;;;;;;27.40;16.27;;;;;;;19.07;75.11;99068.06;4870980;29;20449;-78
2023/10/27 09:01:07;;;;;;;13.40;9.73;;;;;;;19.34;75.88;99127.69;4889118;29;20115;-78
2023/10/27 09:03:34;;;;;;;24.50;14.98;;;;;;;19.41;75.54;99123.84;4873894;29;20118;-78
2023/10/27 09:06:02;;;;;;;22.98;13.30;;;;;;;19.40;75.61;99116.84;4885618;29;20052;-80
2023/10/27 09:08:36;;;;;;;27.33;17.48;;;;;;;19.67;73.59;99134.44;4858303;29;20367;-79
2023/10/27 09:11:03;;;;;;;24.85;14.88;;;;;;;19.64;74.32;99133.03;4860385;29;20538;-80
2023/10/27 09:13:40;;;;;;;18.05;11.65;;;;;;;19.52;75.01;99124.13;4849536;29;20453;-80
2023/10/27 09:16:07;;;;;;;27.63;16.13;;;;;;;19.79;73.78;99151.47;4886189;29;20450;-77
2023/10/27 09:18:38;;;;;;;24.15;15.95;;;;;;;19.89;72.08;99140.13;4908470;28;20135;-80
2023/10/27 09:21:05;;;;;;;28.58;17.25;;;;;;;19.78;73.03;99128.28;4911151;29;20044;-78
2023/10/27 09:23:47;;;;;;;28.70;17.58;;;;;;;19.94;72.59;99143.75;4894728;29;20524;-80
2023/10/27 09:26:16;;;;;;;27.00;15.95;;;;;;;20.00;73.11;99137.44;4861861;29;20078;-80
2023/10/27 09:28:43;;;;;;;27.02;15.90;;;;;;;20.04;73.66;99148.56;4893483;29;20393;-79
2023/10/27 09:31:31;;;;;;;21.70;14.27;;;;;;;19.99;73.35;99129.59;4882210;29;20126;-80
2023/10/27 09:34:25;;;;;;;22.83;14.73;;;;;;;20.26;72.30;99148.78;4872308;29;20447;-81
2023/10/27 09:37:00;;;;;;;17.17;11.35;;;;;;;20.25;72.42;99150.69;4874096;29;20434;-81
2023/10/27 09:39:28;;;;;;;28.92;15.02;;;;;;;20.41;71.43;99161.78;4881029;29;20039;-78
2023/10/27 09:42:04;;;;;;;21.40;12.60;;;;;;;20.45;71.40;99171.06;4880524;29;20103;-79
2023/10/27 09:44:47;;;;;;;26.38;15.98;;;;;;;20.14;71.35;99112.97;4897516;29;20914;-78
2023/10/27 09:47:28;;;;;;;31.90;16.08;;;;;;;20.53;71.23;99162.59;4919761;29;20102;-78
2023/10/27 09:50:06;;;;;;;26.27;14.05;;;;;;;20.60;71.29;99163.31;4875358;29;20111;-79
2023/10/27 09:52:35;;;;;;;28.15;17.20;;;;;;;20.46;70.90;99143.03;4869211;29;20355;-77
2023/10/27 09:55:05;;;;;;;25.67;14.70;;;;;;;20.46;71.30;99143.03;4848762;29;20043;-80
2023/10/27 09:57:47;;;;;;;34.05;15.02;;;;;;;20.64;71.27;99163.69;4882196;29;20068;-78
2023/10/27 10:00:19;;;;;;;25.80;16.88;;;;;;;20.76;70.32;99166.38;4900598;29;20048;-79
2023/10/27 10:02:47;;;;;;;30.77;16.40;;;;;;;20.27;70.02;99083.09;4881012;28;20060;-79
2023/10/27 10:05:14;;;;;;;30.88;16.70;;;;;;;20.88;70.66;99180.63;4867697;29;20063;-79
2023/10/27 10:08:05;;;;;;;22.95;14.35;;;;;;;21.00;69.69;99173.34;4880909;29;20147;-79
2023/10/27 10:10:40;;;;;;;23.70;14.40;;;;;;;21.06;70.05;99187.72;4883698;29;20507;-80
2023/10/27 10:13:12;;;;;;;24.70;14.80;;;;;;;21.14;69.52;99173.84;4868354;29;20389;-77
2023/10/27 10:15:46;;;;;;;21.00;14.82;;;;;;;20.99;69.91;99133.91;4851161;29;20581;-79
2023/10/27 10:18:21;;;;;;;14.82;12.15;;;;;;;21.10;68.87;99135.75;4894613;29;20051;-77
2023/10/27 10:20:56;;;;;;;25.58;16.20;;;;;;;21.29;66.97;99144.47;4881742;29;20307;-80
2023/10/27 10:23:40;;;;;;;17.08;9.13;;;;;;;21.45;67.20;99167.19;4886085;29;20359;-79
2023/10/27 10:26:08;;;;;;;31.08;15.45;;;;;;;21.69;66.92;99185.97;4854579;29;20333;-78
2023/10/27 10:28:36;;;;;;;27.48;15.77;;;;;;;21.80;66.20;99187.78;4880982;29;20138;-81
2023/10/27 10:31:09;;;;;;;23.15;14.48;;;;;;;21.76;66.70;99175.81;4883044;29;20438;-80
2023/10/27 10:33:38;;;;;;;28.70;15.50;;;;;;;21.75;67.02;99174.19;4868598;29;20060;-81
2023/10/27 10:36:11;;;;;;;22.83;13.82;;;;;;;21.82;67.05;99185.66;4879157;29;20423;-80
2023/10/27 10:38:41;;;;;;;27.23;16.60;;;;;;;21.63;66.27;99146.44;4895345;29;20422;-81
2023/10/27 10:41:07;;;;;;;23.35;13.43;;;;;;;21.90;65.20;99169.03;4898388;28;20562;-80
2023/10/27 10:43:36;;;;;;;19.55;13.00;;;;;;;21.71;66.51;99173.03;4885230;29;20402;-80
2023/10/27 10:46:04;;;;;;;16.45;9.77;;;;;;;21.78;66.54;99192.59;4927128;28;20256;-81
2023/10/27 10:48:36;;;;;;;22.38;12.93;;;;;;;21.70;66.14;99187.59;4902851;28;20058;-80
2023/10/27 10:51:04;;;;;;;;;;;;;;;21.59;66.65;99193.88;4904542;29;20082;-80
2023/10/27 10:53:36;;;;;;;31.70;13.13;;;;;;;21.23;67.23;99155.41;4918688;29;19929;-80
2023/10/27 10:56:04;;;;;;;21.50;13.70;;;;;;;21.21;67.23;99138.63;4915494;29;20043;-80
2023/10/27 10:58:36;;;;;;;20.48;11.75;;;;;;;21.46;67.39;99189.63;4921422;29;20485;-81
2023/10/27 11:01:04;;;;;;;16.63;11.23;;;;;;;21.34;67.74;99184.25;4917169;28;20082;-81
2023/10/27 11:03:36;;;;;;;17.52;12.50;;;;;;;21.31;67.77;99176.59;4918326;29;20586;-80
2023/10/27 11:06:05;;;;;;;23.48;13.20;;;;;;;21.28;68.43;99180.59;4917773;29;20446;-80
2023/10/27 11:08:37;;;;;;;24.98;13.52;;;;;;;21.04;68.42;99149.38;4914059;29;20043;-81
2023/10/27 11:11:14;;;;;;;14.70;8.98;;;;;;;20.77;68.02;99124.84;4907716;28;20425;-81
2023/10/27 11:13:45;;;;;;;25.83;14.32;;;;;;;21.28;68.46;99187.88;4891549;29;20055;-78
2023/10/27 11:16:23;;;;;;;21.55;12.30;;;;;;;21.15;68.20;99174.69;4907360;29;20083;-78
2023/10/27 11:19:05;;;;;;;23.25;11.80;;;;;;;21.25;68.63;99180.28;4891340;29;20043;-79
2023/10/27 11:21:34;;;;;;;16.75;8.48;;;;;;;21.19;68.86;99176.66;4928104;29;21037;-78
2023/10/27 11:24:07;;;;;;;9.70;5.95;;;;;;;21.24;67.72;99179.47;4919646;29;20118;-80
2023/10/27 11:26:41;;;;;;;9.88;6.40;;;;;;;21.29;66.57;99176.03;4904172;29;20434;-80
2023/10/27 11:29:09;;;;;;;15.30;6.25;;;;;;;21.26;66.07;99171.09;4909873;29;20492;-80
2023/10/27 11:31:46;;;;;;;11.52;5.80;;;;;;;21.36;65.59;99171.31;4907320;29;20061;-79
2023/10/27 11:34:20;;;;;;;11.38;4.85;;;;;;;21.53;61.91;99172.22;4882327;29;20056;-79